Time;durP1;ratioP1;P1;durP2;ratioP2;P2;SDS_P1;SDS_P2;PMS_P1;PMS_P2;Temp;Humidity;BMP_temperature;BMP_pressure;BME280_temperature;BME280_humidity;BME280_pressure;Samples;Min_cycle;Max_cycle;Signal;HPM_P1;HPM_P2
2021/09/16 00:00:14;;;;;;;8.10;5.50;;;;;;;17.36;85.37;101124.84;5014945;28;20330;-78
2021/09/16 00:02:41;;;;;;;8.00;5.33;;;;;;;17.33;85.60;101132.66;5014757;28;20179;-77
2021/09/16 00:05:08;;;;;;;13.33;6.27;;;;;;;17.28;85.88;101128.34;5014527;28;20254;-79
2021/09/16 00:07:34;;;;;;;11.43;6.00;;;;;;;17.27;85.94;101134.41;4998579;28;20201;-78
2021/09/16 00:09:59;;;;;;;9.87;5.90;;;;;;;17.27;85.73;101132.66;5027609;28;20290;-78
2021/09/16 00:12:25;;;;;;;11.90;5.60;;;;;;;17.23;85.86;101137.84;5015255;28;20186;-79
2021/09/16 00:14:51;;;;;;;10.57;6.10;;;;;;;17.19;85.61;101134.41;5033721;28;20187;-79
2021/09/16 00:17:16;;;;;;;11.17;5.63;;;;;;;17.16;86.19;101143.91;5030466;28;20202;-79
2021/09/16 00:19:41;;;;;;;8.67;6.10;;;;;;;17.20;85.89;101138.72;5013533;28;20277;-79
2021/09/16 00:22:07;;;;;;;11.27;6.00;;;;;;;17.16;86.02;101138.72;4996586;28;20676;-79
2021/09/16 00:24:32;;;;;;;11.60;6.40;;;;;;;17.12;86.18;101142.19;5011704;28;20227;-79
2021/09/16 00:26:57;;;;;;;13.17;6.83;;;;;;;17.09;86.28;101140.47;5016853;28;20237;-79
2021/09/16 00:29:23;;;;;;;10.37;6.17;;;;;;;17.07;86.49;101141.31;4995770;28;20294;-79
2021/09/16 00:31:48;;;;;;;9.77;6.50;;;;;;;17.05;86.48;101143.94;5000983;28;20199;-79
2021/09/16 00:34:13;;;;;;;9.37;6.70;;;;;;;17.04;86.44;101144.78;5015517;28;20201;-79
2021/09/16 00:36:38;;;;;;;13.70;7.10;;;;;;;17.03;86.39;101148.25;5026903;28;20215;-78
2021/09/16 00:39:04;;;;;;;12.97;7.37;;;;;;;17.01;86.54;101150.00;5016338;28;20191;-78
2021/09/16 00:41:30;;;;;;;11.00;7.40;;;;;;;17.02;86.40;101151.69;5002036;28;20218;-78
2021/09/16 00:43:56;;;;;;;10.50;7.53;;;;;;;17.02;86.42;101149.13;5035432;28;20190;-78
2021/09/16 00:46:21;;;;;;;12.70;7.50;;;;;;;16.99;86.59;101156.88;5035393;28;20183;-78
2021/09/16 00:48:46;;;;;;;12.80;7.90;;;;;;;16.98;86.26;101155.16;5017377;28;20656;-78
2021/09/16 00:51:12;;;;;;;13.10;7.50;;;;;;;16.96;86.41;101153.44;5017188;28;20239;-78
2021/09/16 00:53:39;;;;;;;12.43;7.63;;;;;;;16.93;86.40;101153.44;5035699;28;20178;-78
2021/09/16 00:56:06;;;;;;;11.97;7.60;;;;;;;16.93;86.74;101156.03;5019218;28;20222;-78
2021/09/16 00:58:37;;;;;;;12.87;7.40;;;;;;;16.93;86.32;101148.25;5022162;28;20679;-77
2021/09/16 01:01:02;;;;;;;13.80;7.50;;;;;;;16.92;86.63;101150.00;5015899;28;20206;-78
2021/09/16 01:03:28;;;;;;;11.87;7.27;;;;;;;16.89;86.58;101152.59;5015914;28;20599;-78
2021/09/16 01:05:53;;;;;;;12.80;6.90;;;;;;;16.91;86.11;101148.25;5015575;28;20624;-78
2021/09/16 01:08:19;;;;;;;13.43;7.10;;;;;;;16.93;85.99;101156.03;5034246;28;20202;-78
2021/09/16 01:10:44;;;;;;;11.57;7.33;;;;;;;16.93;85.40;101153.44;5033453;28;20221;-78
2021/09/16 01:13:10;;;;;;;15.33;7.30;;;;;;;16.93;85.63;101153.44;5035163;28;20198;-78
2021/09/16 01:15:37;;;;;;;12.07;6.10;;;;;;;16.92;85.50;101152.59;5035216;28;20218;-78
2021/09/16 01:18:02;;;;;;;12.27;6.53;;;;;;;16.89;86.04;101155.16;5020691;28;20240;-78
2021/09/16 01:20:28;;;;;;;13.77;7.10;;;;;;;16.86;85.96;101155.16;5015903;28;20274;-78
2021/09/16 01:22:54;;;;;;;10.97;6.43;;;;;;;16.85;86.25;101161.22;5029214;28;20887;-78
2021/09/16 01:25:24;;;;;;;12.40;6.60;;;;;;;16.77;86.50;101162.94;5035260;28;20537;-78
2021/09/16 01:27:52;;;;;;;13.20;6.83;;;;;;;16.79;86.16;101163.81;5023726;28;20195;-78
2021/09/16 01:30:17;;;;;;;10.87;7.37;;;;;;;16.78;86.59;101168.97;5031102;28;20240;-77
2021/09/16 01:32:43;;;;;;;9.17;6.63;;;;;;;16.75;86.44;101167.25;5022645;28;20229;-78
2021/09/16 01:35:08;;;;;;;12.67;6.77;;;;;;;16.78;85.71;101168.97;5014563;28;20194;-78
2021/09/16 01:37:34;;;;;;;19.67;8.10;;;;;;;16.74;86.08;101165.53;5017502;28;20225;-78
2021/09/16 01:39:59;;;;;;;11.40;7.23;;;;;;;16.74;85.68;101170.72;5014654;28;20241;-78
2021/09/16 01:42:24;;;;;;;14.23;6.53;;;;;;;16.73;85.65;101166.41;4998588;28;20187;-78
2021/09/16 01:44:50;;;;;;;11.93;7.57;;;;;;;16.70;86.36;101168.97;5019867;28;20201;-78
2021/09/16 01:47:15;;;;;;;10.73;6.97;;;;;;;16.73;85.72;101157.78;5016441;28;20183;-78
2021/09/16 01:49:40;;;;;;;12.73;7.50;;;;;;;16.70;85.92;101161.22;5019111;28;20353;-78
2021/09/16 01:52:06;;;;;;;11.63;6.90;;;;;;;16.68;85.91;101159.50;5015985;28;20206;-79
2021/09/16 01:54:31;;;;;;;11.20;6.77;;;;;;;16.70;85.85;101160.34;5014198;28;20182;-78
2021/09/16 01:56:57;;;;;;;9.07;6.03;;;;;;;16.71;85.66;101151.75;5022112;28;20692;-78
2021/09/16 01:59:22;;;;;;;9.83;6.20;;;;;;;16.70;85.22;101158.63;5019799;28;20199;-78
2021/09/16 02:01:47;;;;;;;8.90;5.03;;;;;;;16.68;84.41;101154.31;5016559;28;20260;-79
2021/09/16 02:04:13;;;;;;;9.47;5.00;;;;;;;16.63;84.91;101145.72;5016416;28;20619;-78
2021/09/16 02:06:38;;;;;;;9.03;4.60;;;;;;;16.63;84.47;101150.88;5015327;28;20190;-78
2021/09/16 02:09:04;;;;;;;7.90;4.63;;;;;;;16.60;84.56;101153.47;5014793;28;20199;-78
2021/09/16 02:11:29;;;;;;;10.67;4.27;;;;;;;16.56;84.61;101168.13;5014067;28;20213;-78
2021/09/16 02:13:54;;;;;;;10.20;3.63;;;;;;;16.54;84.22;101156.91;5031775;28;20191;-79
2021/09/16 02:16:20;;;;;;;6.93;3.17;;;;;;;16.52;83.71;101157.75;5028173;28;20206;-78
2021/09/16 02:18:45;;;;;;;7.07;3.50;;;;;;;16.55;83.47;101170.69;5034012;28;20187;-78
2021/09/16 02:21:10;;;;;;;7.57;3.23;;;;;;;16.49;83.85;101168.13;5032947;28;20709;-78
2021/09/16 02:23:36;;;;;;;6.53;3.57;;;;;;;16.46;84.13;101168.97;5014228;28;20287;-78
2021/09/16 02:26:01;;;;;;;7.87;3.53;;;;;;;16.44;84.17;101177.59;5013388;28;20199;-79
2021/09/16 02:28:26;;;;;;;10.20;3.83;;;;;;;16.38;84.99;101183.59;5027420;28;20601;-78
2021/09/16 02:30:52;;;;;;;5.50;3.43;;;;;;;16.35;84.28;101174.97;5014487;28;20237;-78
2021/09/16 02:33:17;;;;;;;7.40;3.63;;;;;;;16.31;84.44;101171.50;5014829;28;20179;-78
2021/09/16 02:35:42;;;;;;;9.83;3.23;;;;;;;16.30;83.77;101176.69;5014844;28;20615;-78
2021/09/16 02:38:08;;;;;;;6.80;3.27;;;;;;;16.32;84.06;101178.41;5029862;28;20328;-78
2021/09/16 02:40:33;;;;;;;6.00;3.27;;;;;;;16.28;84.00;101183.56;5033275;28;20206;-77
2021/09/16 02:42:59;;;;;;;8.77;3.13;;;;;;;16.23;83.63;101175.81;5022132;28;20198;-78
2021/09/16 02:45:24;;;;;;;6.73;2.97;;;;;;;16.25;83.61;101173.25;5022128;28;20379;-78
2021/09/16 02:47:50;;;;;;;7.47;3.10;;;;;;;16.24;83.34;101174.94;5015635;28;20246;-78
2021/09/16 02:50:15;;;;;;;4.20;2.97;;;;;;;16.24;83.03;101185.28;5022882;28;20214;-78
2021/09/16 02:52:41;;;;;;;5.60;2.67;;;;;;;16.25;83.09;101199.09;5012262;28;20191;-78
2021/09/16 02:55:07;;;;;;;3.77;2.33;;;;;;;16.24;82.94;101198.22;5015300;28;20186;-78
2021/09/16 02:57:32;;;;;;;6.27;3.00;;;;;;;16.22;83.06;101199.94;4997719;28;20266;-77
2021/09/16 02:59:57;;;;;;;5.27;2.60;;;;;;;16.25;83.31;101202.50;5013835;28;20285;-78
2021/09/16 03:02:23;;;;;;;7.00;3.03;;;;;;;16.28;83.14;101207.69;5012604;28;20571;-78
2021/09/16 03:04:48;;;;;;;5.93;2.40;;;;;;;16.25;82.85;101199.09;5011469;28;20703;-76
2021/09/16 03:07:14;;;;;;;8.37;2.77;;;;;;;16.22;83.54;101202.53;5020551;28;20210;-78
2021/09/16 03:09:39;;;;;;;7.27;2.23;;;;;;;16.21;83.21;101202.50;5032271;28;20628;-78
2021/09/16 03:12:05;;;;;;;7.27;2.63;;;;;;;16.21;83.34;101210.28;5026990;28;20269;-78
2021/09/16 03:14:30;;;;;;;5.20;2.60;;;;;;;16.20;83.13;101206.81;5031397;28;20269;-78
2021/09/16 03:16:55;;;;;;;6.50;2.37;;;;;;;16.24;82.78;101216.28;5025662;28;20219;-78
2021/09/16 03:19:21;;;;;;;4.67;2.50;;;;;;;16.20;83.32;101205.94;5018135;28;20213;-77
2021/09/16 03:21:46;;;;;;;6.40;2.60;;;;;;;16.18;82.77;101216.28;5026716;28;20186;-77
2021/09/16 03:24:11;;;;;;;6.73;2.70;;;;;;;16.15;83.40;101212.81;5048185;28;20203;-78
2021/09/16 03:26:37;;;;;;;4.73;2.00;;;;;;;16.09;83.23;101216.25;5029862;28;20186;-78
2021/09/16 03:29:03;;;;;;;4.70;2.33;;;;;;;16.08;82.51;101224.88;5020077;28;20203;-78
2021/09/16 03:31:28;;;;;;;4.87;2.10;;;;;;;16.05;82.96;101211.94;5021934;28;20202;-77
2021/09/16 03:33:53;;;;;;;6.67;2.17;;;;;;;16.01;83.07;101212.78;5031154;28;20191;-77
2021/09/16 03:36:19;;;;;;;4.03;1.87;;;;;;;15.95;82.72;101211.91;5031198;28;20556;-78
2021/09/16 03:38:44;;;;;;;4.07;1.83;;;;;;;15.94;82.63;101215.34;5016901;28;20613;-78
2021/09/16 03:41:09;;;;;;;4.37;1.53;;;;;;;15.93;82.71;101205.88;5024328;28;20695;-79
2021/09/16 03:43:35;;;;;;;4.83;1.67;;;;;;;15.90;82.30;101213.59;5025427;28;20269;-77
2021/09/16 03:46:00;;;;;;;4.20;1.70;;;;;;;15.86;82.10;101204.13;5012940;28;20234;-78
2021/09/16 03:48:26;;;;;;;7.73;2.10;;;;;;;15.86;81.99;101204.13;5011827;28;20210;-78
2021/09/16 03:50:51;;;;;;;4.33;1.70;;;;;;;15.85;81.97;101207.56;5022846;28;20715;-78
2021/09/16 03:53:18;;;;;;;5.70;1.87;;;;;;;15.80;82.19;101206.69;5031661;28;20186;-78
2021/09/16 03:55:43;;;;;;;9.17;1.90;;;;;;;15.77;82.31;101217.00;5021166;28;20210;-78
2021/09/16 03:58:08;;;;;;;5.00;1.67;;;;;;;15.72;82.54;101211.81;5031815;28;20252;-77
2021/09/16 04:00:34;;;;;;;6.50;1.70;;;;;;;15.66;82.26;101211.78;5018540;28;20227;-77
2021/09/16 04:03:10;;;;;;;5.17;1.53;;;;;;;15.68;82.24;101216.94;5021134;28;20187;-78
2021/09/16 04:05:37;;;;;;;6.30;1.70;;;;;;;15.67;82.09;101213.53;5016851;28;20278;-78
2021/09/16 04:08:03;;;;;;;5.47;1.70;;;;;;;15.64;81.74;101218.66;5012631;28;20279;-79
2021/09/16 04:10:29;;;;;;;4.57;1.60;;;;;;;15.60;82.25;101227.25;5013957;28;20309;-78
2021/09/16 04:12:55;;;;;;;5.77;1.77;;;;;;;15.59;82.42;101219.47;5000231;28;20191;-78
2021/09/16 04:15:20;;;;;;;3.03;1.50;;;;;;;15.57;82.19;101218.63;5017315;28;20206;-79
2021/09/16 04:17:45;;;;;;;7.60;2.00;;;;;;;15.51;82.06;101216.03;5016319;28;20226;-79
2021/09/16 04:20:11;;;;;;;4.30;1.70;;;;;;;15.53;82.11;101216.88;4999580;28;20219;-78
2021/09/16 04:22:37;;;;;;;5.97;1.53;;;;;;;15.48;82.25;101214.25;5015982;28;20183;-79
2021/09/16 04:25:02;;;;;;;4.77;1.50;;;;;;;15.45;82.04;101215.97;5032863;28;20667;-78
2021/09/16 04:27:28;;;;;;;3.60;1.57;;;;;;;15.47;81.78;101211.69;5016276;28;20675;-79
2021/09/16 04:29:53;;;;;;;5.73;1.57;;;;;;;15.43;81.69;101215.94;5032235;28;20215;-78
2021/09/16 04:32:18;;;;;;;4.60;1.63;;;;;;;15.41;82.03;101209.94;5017846;28;20604;-79
2021/09/16 04:34:44;;;;;;;6.00;1.47;;;;;;;15.40;82.27;101220.25;5016975;28;20556;-79
2021/09/16 04:37:09;;;;;;;6.20;1.60;;;;;;;15.37;82.14;101223.66;5032810;28;20627;-79
2021/09/16 04:39:34;;;;;;;7.60;1.40;;;;;;;15.35;82.28;101220.22;5032699;28;20207;-79
2021/09/16 04:42:00;;;;;;;5.93;1.40;;;;;;;15.31;82.01;101238.22;5016546;28;20184;-79
2021/09/16 04:44:25;;;;;;;3.70;1.33;;;;;;;15.31;82.32;101239.09;5017816;28;20663;-79
2021/09/16 04:46:50;;;;;;;5.53;1.70;;;;;;;15.31;82.42;101238.22;5016703;28;20191;-79
2021/09/16 04:49:16;;;;;;;4.00;1.87;;;;;;;15.29;83.10;101239.94;4999396;28;20187;-78
2021/09/16 04:51:41;;;;;;;6.43;1.87;;;;;;;15.29;82.15;101243.34;5016529;28;20191;-77
2021/09/16 04:54:08;;;;;;;3.53;1.70;;;;;;;15.28;82.09;101235.63;5017629;28;20202;-76
2021/09/16 04:56:33;;;;;;;3.40;1.57;;;;;;;15.25;82.69;101240.75;5016574;28;20229;-77
2021/09/16 04:58:59;;;;;;;3.70;1.60;;;;;;;15.32;82.89;101234.78;5016733;28;20258;-77
2021/09/16 05:01:24;;;;;;;5.90;2.00;;;;;;;15.28;81.79;101235.63;5018862;28;20250;-77
2021/09/16 05:03:49;;;;;;;5.50;2.17;;;;;;;15.25;83.09;101230.44;5016699;28;20191;-77
2021/09/16 05:06:15;;;;;;;4.67;2.27;;;;;;;15.24;82.40;101236.47;5011892;28;20187;-78
2021/09/16 05:08:42;;;;;;;9.27;2.77;;;;;;;15.20;82.79;101234.72;5017266;28;20245;-77
2021/09/16 05:11:08;;;;;;;4.77;2.97;;;;;;;15.19;82.92;101236.41;4999502;28;20294;-77
2021/09/16 05:13:33;;;;;;;4.87;3.00;;;;;;;15.19;82.41;101245.88;5016220;28;20415;-76
2021/09/16 05:15:58;;;;;;;7.63;3.10;;;;;;;15.12;82.98;101244.09;4997958;28;20223;-76
2021/09/16 05:18:24;;;;;;;7.70;3.43;;;;;;;15.14;82.42;101239.84;5013543;28;20184;-77
2021/09/16 05:20:49;;;;;;;7.63;3.47;;;;;;;15.14;82.21;101238.09;4997968;28;20230;-77
2021/09/16 05:23:14;;;;;;;7.37;3.57;;;;;;;15.13;82.70;101235.50;4994423;28;20196;-77
2021/09/16 05:25:40;;;;;;;8.13;4.03;;;;;;;15.10;82.70;101231.19;4994920;28;20195;-77
2021/09/16 05:28:05;;;;;;;10.23;4.53;;;;;;;15.10;82.91;101238.94;4995830;28;20188;-76
2021/09/16 05:30:30;;;;;;;5.20;3.80;;;;;;;15.08;83.20;101239.78;4997403;28;20219;-77
2021/09/16 05:32:56;;;;;;;17.10;4.97;;;;;;;15.08;82.40;101243.22;5012385;28;20200;-77
2021/09/16 05:35:21;;;;;;;4.60;4.20;;;;;;;15.10;83.04;101246.66;4996936;28;20192;-77
2021/09/16 05:37:46;;;;;;;7.97;4.67;;;;;;;15.09;82.61;101244.06;4979291;28;20188;-77
2021/09/16 05:40:12;;;;;;;6.37;4.37;;;;;;;15.04;82.42;101240.59;4997845;28;20207;-76
2021/09/16 05:42:38;;;;;;;9.23;4.77;;;;;;;15.01;82.70;101244.00;4995932;28;20184;-77
2021/09/16 05:45:06;;;;;;;8.63;4.90;;;;;;;14.97;82.81;101241.41;5012955;28;20245;-77
2021/09/16 05:47:31;;;;;;;7.73;5.00;;;;;;;14.96;82.75;101235.38;5011806;28;20191;-77
2021/09/16 05:49:56;;;;;;;7.73;4.63;;;;;;;15.02;83.02;101234.56;5012467;28;20878;-77
2021/09/16 05:52:22;;;;;;;7.43;4.80;;;;;;;15.07;83.14;101232.88;4996610;28;20570;-78
2021/09/16 05:54:47;;;;;;;9.73;5.60;;;;;;;15.12;82.98;101238.94;4980006;28;20669;-77
2021/09/16 05:57:12;;;;;;;8.80;5.23;;;;;;;15.11;83.15;101250.13;5012134;28;20224;-77
2021/09/16 05:59:38;;;;;;;7.97;4.77;;;;;;;15.17;82.61;101251.03;4995373;28;20326;-78
2021/09/16 06:02:03;;;;;;;6.87;5.17;;;;;;;15.14;82.73;101247.56;5012378;28;20191;-78
2021/09/16 06:04:30;;;;;;;7.57;5.53;;;;;;;15.20;82.53;101247.59;4996798;28;20184;-77
2021/09/16 06:06:56;;;;;;;6.87;5.10;;;;;;;15.16;82.80;101243.28;5011579;28;20703;-77
2021/09/16 06:09:21;;;;;;;10.60;5.53;;;;;;;15.24;82.93;101246.78;4996110;28;20192;-78
2021/09/16 06:11:46;;;;;;;8.17;5.70;;;;;;;15.30;82.81;101237.38;4996739;28;20203;-77
2021/09/16 06:14:11;;;;;;;8.93;5.40;;;;;;;15.30;82.95;101242.53;4996658;28;20192;-77
2021/09/16 06:16:37;;;;;;;7.73;6.00;;;;;;;15.33;82.75;101245.09;4996136;28;20211;-78
2021/09/16 06:19:02;;;;;;;8.77;5.90;;;;;;;15.39;82.45;101241.75;4995499;28;20186;-77
2021/09/16 06:21:28;;;;;;;9.20;6.27;;;;;;;15.42;82.62;101250.38;4994988;28;20295;-77
2021/09/16 06:23:53;;;;;;;10.67;6.80;;;;;;;15.38;82.45;101252.94;4996237;28;20192;-77
2021/09/16 06:26:19;;;;;;;8.90;6.57;;;;;;;15.37;83.21;101253.78;4994582;28;20214;-77
2021/09/16 06:28:45;;;;;;;12.40;7.17;;;;;;;15.31;83.69;101267.47;4978647;28;20180;-78
2021/09/16 06:31:10;;;;;;;8.70;6.70;;;;;;;15.22;83.42;101256.22;4994902;28;20270;-77
2021/09/16 06:33:36;;;;;;;9.33;7.00;;;;;;;15.22;83.47;101259.66;4996517;28;20186;-77
2021/09/16 06:36:02;;;;;;;11.43;7.47;;;;;;;15.32;83.31;101263.16;4995664;28;20215;-77
2021/09/16 06:38:27;;;;;;;12.83;7.30;;;;;;;15.33;83.37;101255.44;4978551;28;20194;-78
2021/09/16 06:40:53;;;;;;;11.20;7.57;;;;;;;15.32;83.90;101261.44;4994728;28;20211;-77
2021/09/16 06:43:18;;;;;;;10.73;7.00;;;;;;;15.37;83.60;101254.63;4994726;28;20373;-77
2021/09/16 06:45:43;;;;;;;9.53;7.10;;;;;;;15.35;83.53;101260.66;4978867;28;20565;-77
2021/09/16 06:48:09;;;;;;;11.40;7.50;;;;;;;15.38;83.60;101261.53;4978856;28;20316;-77
2021/09/16 06:50:34;;;;;;;14.17;7.23;;;;;;;15.34;83.35;101251.19;4996236;28;20207;-77
2021/09/16 06:53:00;;;;;;;11.43;7.40;;;;;;;15.37;83.60;101257.22;4996073;28;20199;-77
2021/09/16 06:55:25;;;;;;;10.13;6.80;;;;;;;15.46;83.09;101258.97;4996133;28;20188;-77
2021/09/16 06:57:50;;;;;;;8.03;7.10;;;;;;;15.49;82.83;101261.59;4978279;28;20195;-78
2021/09/16 07:00:16;;;;;;;12.70;7.30;;;;;;;15.57;82.53;101262.50;4996486;28;20593;-78
2021/09/16 07:02:48;;;;;;;10.73;7.77;;;;;;;15.57;82.74;101259.94;4994383;28;20729;-77
2021/09/16 07:05:14;;;;;;;11.40;7.90;;;;;;;15.62;82.72;101258.25;4995700;28;20188;-77
2021/09/16 07:07:39;;;;;;;9.60;7.37;;;;;;;15.63;82.40;101260.84;4996024;28;20196;-77
2021/09/16 07:10:05;;;;;;;12.40;8.03;;;;;;;15.62;82.82;101255.66;4994173;28;20620;-77
2021/09/16 07:12:30;;;;;;;10.23;7.77;;;;;;;15.62;82.43;101265.97;4978366;28;20188;-77
2021/09/16 07:14:56;;;;;;;11.13;7.70;;;;;;;15.69;82.71;101268.59;4994180;28;20192;-78
2021/09/16 07:17:21;;;;;;;11.63;7.83;;;;;;;15.74;82.32;101268.66;4994394;28;20269;-77
2021/09/16 07:19:46;;;;;;;10.30;6.97;;;;;;;15.67;82.29;101269.44;5010465;28;20279;-78
2021/09/16 07:22:12;;;;;;;14.57;8.03;;;;;;;15.73;82.78;101269.47;4995704;28;20266;-77
2021/09/16 07:24:37;;;;;;;10.27;7.30;;;;;;;15.67;82.63;101266.88;4995111;28;20235;-76
2021/09/16 07:27:03;;;;;;;9.93;7.10;;;;;;;15.66;82.60;101276.31;4993806;28;20610;-77
2021/09/16 07:29:28;;;;;;;11.63;7.13;;;;;;;15.80;82.40;101277.25;5010679;28;20279;-78
2021/09/16 07:31:54;;;;;;;14.20;6.87;;;;;;;15.82;82.56;101279.84;4995795;28;20193;-77
2021/09/16 07:34:21;;;;;;;7.67;5.90;;;;;;;15.83;82.76;101277.28;4977751;28;20223;-77
2021/09/16 07:36:47;;;;;;;11.60;6.40;;;;;;;15.85;82.16;101287.63;4993257;28;20255;-77
2021/09/16 07:39:14;;;;;;;11.57;6.80;;;;;;;15.88;82.17;101282.50;4994581;28;20677;-77
2021/09/16 07:41:40;;;;;;;11.30;6.37;;;;;;;16.03;82.19;101280.81;4994050;28;20251;-77
2021/09/16 07:44:06;;;;;;;10.80;7.23;;;;;;;16.02;81.54;101286.00;4977669;28;20636;-77
2021/09/16 07:46:31;;;;;;;9.10;6.83;;;;;;;16.09;81.71;101278.28;4994251;28;20187;-77
2021/09/16 07:48:57;;;;;;;10.47;6.70;;;;;;;16.10;81.88;101286.88;4994225;28;20190;-77
2021/09/16 07:51:23;;;;;;;9.50;7.03;;;;;;;16.09;81.60;101293.78;5011269;28;20289;-78
2021/09/16 07:53:49;;;;;;;11.90;8.00;;;;;;;16.11;81.44;101296.38;5013333;28;20730;-78
2021/09/16 07:56:15;;;;;;;10.17;7.60;;;;;;;16.20;81.60;101297.25;5013422;28;20211;-77
2021/09/16 07:58:43;;;;;;;11.23;7.37;;;;;;;16.14;80.95;101289.50;5014898;28;20671;-77
2021/09/16 08:01:08;;;;;;;13.80;7.70;;;;;;;16.26;81.16;101288.69;4997073;28;20211;-77
2021/09/16 08:03:33;;;;;;;11.70;8.00;;;;;;;16.25;81.56;101289.53;5015146;28;20203;-77
2021/09/16 08:05:59;;;;;;;14.17;8.13;;;;;;;16.26;80.79;101280.91;4997312;28;20217;-77
2021/09/16 08:08:24;;;;;;;12.97;8.00;;;;;;;16.37;81.01;101298.19;5013933;28;20214;-77
2021/09/16 08:10:49;;;;;;;13.23;8.57;;;;;;;16.23;81.64;101293.81;5014523;28;20210;-77
2021/09/16 08:13:15;;;;;;;13.43;8.37;;;;;;;16.28;81.63;101289.53;5015693;28;20195;-77
2021/09/16 08:15:41;;;;;;;11.30;7.77;;;;;;;16.45;81.19;101293.94;5013260;28;20253;-77
2021/09/16 08:18:07;;;;;;;14.17;7.93;;;;;;;16.47;81.19;101296.50;5013810;28;20195;-77
2021/09/16 08:20:38;;;;;;;9.20;7.47;;;;;;;16.50;80.56;101294.81;5013643;28;20258;-78
2021/09/16 08:23:03;;;;;;;9.80;6.87;;;;;;;16.57;80.57;101296.53;5013869;28;20242;-78
2021/09/16 08:25:29;;;;;;;10.43;7.33;;;;;;;16.57;80.39;101301.72;5014548;28;20226;-77
2021/09/16 08:27:54;;;;;;;8.90;6.97;;;;;;;16.44;80.67;101297.38;4997641;28;20669;-77
2021/09/16 08:30:20;;;;;;;7.07;6.37;;;;;;;16.45;80.79;101301.69;4996836;28;20207;-77
2021/09/16 08:32:47;;;;;;;9.70;7.03;;;;;;;16.55;80.87;101303.44;5015504;28;20219;-78
2021/09/16 08:35:13;;;;;;;8.83;6.57;;;;;;;16.65;80.55;101300.03;5013825;28;20202;-78
2021/09/16 08:37:38;;;;;;;9.37;6.67;;;;;;;16.62;80.50;101299.16;5013174;28;20192;-78
2021/09/16 08:40:04;;;;;;;8.43;5.70;;;;;;;16.63;80.31;101303.47;5013507;28;20207;-78
2021/09/16 08:42:30;;;;;;;9.87;4.97;;;;;;;16.59;80.26;101296.56;5013429;28;20214;-78
2021/09/16 08:44:56;;;;;;;9.77;5.47;;;;;;;16.56;80.76;101293.94;4997774;28;20186;-77
2021/09/16 08:47:24;;;;;;;11.77;5.80;;;;;;;16.42;81.20;101295.63;5013345;28;20179;-77
2021/09/16 08:49:51;;;;;;;8.03;5.07;;;;;;;16.57;81.46;101300.88;5014596;28;20276;-77
2021/09/16 08:52:17;;;;;;;6.43;5.30;;;;;;;16.50;81.03;101302.56;5014953;28;20192;-77
2021/09/16 08:54:43;;;;;;;7.50;5.40;;;;;;;16.57;80.95;101303.47;5013233;28;20230;-77
2021/09/16 08:57:14;;;;;;;6.40;4.67;;;;;;;16.53;80.26;101307.72;5017301;28;20211;-78
2021/09/16 08:59:41;;;;;;;7.73;4.97;;;;;;;16.53;80.97;101306.91;5018668;28;20203;-77
2021/09/16 09:02:07;;;;;;;9.23;5.73;;;;;;;16.43;81.32;101300.81;5000574;28;20195;-78
2021/09/16 09:04:33;;;;;;;8.07;5.00;;;;;;;16.48;81.42;101306.03;5018908;28;20180;-78
2021/09/16 09:07:06;;;;;;;8.40;5.27;;;;;;;16.36;81.56;101306.81;5000212;28;20548;-77
2021/09/16 09:09:32;;;;;;;7.37;5.47;;;;;;;16.39;82.09;101300.78;5018268;28;20310;-77
2021/09/16 09:12:11;;;;;;;9.37;5.90;;;;;;;16.35;81.83;101306.81;5014950;28;20195;-77
2021/09/16 09:14:39;;;;;;;7.33;5.30;;;;;;;16.32;81.59;101305.06;5015498;28;20192;-77
2021/09/16 09:17:21;;;;;;;7.50;5.07;;;;;;;16.37;81.89;101308.53;5016067;28;20215;-78
2021/09/16 09:19:48;;;;;;;7.43;5.30;;;;;;;16.47;81.71;101302.56;5017363;28;20221;-76
2021/09/16 09:22:25;;;;;;;7.00;4.90;;;;;;;16.69;81.49;101299.16;5016580;28;20207;-78
2021/09/16 09:24:59;;;;;;;7.73;5.30;;;;;;;16.95;80.42;101299.22;5018262;28;20260;-77
2021/09/16 09:27:33;;;;;;;9.13;5.40;;;;;;;17.02;79.77;101296.63;5000279;28;20673;-77
2021/09/16 09:30:26;;;;;;;9.93;4.97;;;;;;;16.97;80.24;101287.13;5015795;28;20210;-77
2021/09/16 09:33:00;;;;;;;8.13;5.57;;;;;;;17.08;79.91;101290.59;5016235;28;20218;-77
2021/09/16 09:35:29;;;;;;;9.47;4.90;;;;;;;17.41;80.49;101290.59;4999675;28;20243;-77
2021/09/16 09:37:56;;;;;;;7.40;5.07;;;;;;;17.64;78.60;101289.69;5017627;28;20180;-77
2021/09/16 09:40:37;;;;;;;6.37;4.37;;;;;;;17.94;77.82;101286.16;5014986;28;20207;-77
2021/09/16 09:43:22;;;;;;;5.30;3.97;;;;;;;17.93;76.58;101285.31;5012143;28;20660;-77
2021/09/16 09:46:06;;;;;;;5.63;3.70;;;;;;;18.38;74.00;101285.13;4995598;28;20180;-77
2021/09/16 09:48:34;;;;;;;5.47;4.00;;;;;;;18.42;74.44;101291.16;4997721;28;20270;-78
2021/09/16 09:51:00;;;;;;;5.57;4.27;;;;;;;18.12;75.50;101289.53;4995884;28;20278;-77
2021/09/16 09:53:25;;;;;;;8.93;4.40;;;;;;;17.98;76.44;101293.91;4996450;28;20187;-77
2021/09/16 09:55:51;;;;;;;10.43;5.30;;;;;;;17.68;77.20;101299.16;4996047;28;20593;-77
2021/09/16 09:58:35;;;;;;;6.70;4.57;;;;;;;17.50;77.78;101295.78;4979739;28;20282;-78
2021/09/16 10:01:27;;;;;;;10.90;4.97;;;;;;;17.54;77.94;101295.75;4997658;28;20212;-77
2021/09/16 10:03:53;;;;;;;5.87;4.27;;;;;;;17.56;78.11;101306.13;4997532;28;20255;-77
2021/09/16 10:06:18;;;;;;;7.80;4.17;;;;;;;17.65;78.10;101291.44;5009979;28;20183;-78
2021/09/16 10:08:43;;;;;;;7.17;4.67;;;;;;;17.75;78.78;101294.84;4998000;28;20664;-78
2021/09/16 10:11:09;;;;;;;5.57;4.20;;;;;;;17.86;77.61;101299.13;5014390;28;20712;-78
2021/09/16 10:13:35;;;;;;;5.90;4.23;;;;;;;17.96;76.75;101300.81;5015083;28;20199;-78
2021/09/16 10:16:04;;;;;;;4.50;4.10;;;;;;;18.03;76.79;101299.94;5014316;28;20246;-77
2021/09/16 10:18:31;;;;;;;5.63;4.23;;;;;;;18.09;75.67;101293.84;5015179;28;20186;-78
2021/09/16 10:20:59;;;;;;;5.13;4.10;;;;;;;18.34;75.38;101293.78;5016900;28;20215;-78
2021/09/16 10:23:25;;;;;;;6.53;3.97;;;;;;;18.48;74.03;101291.13;5016508;28;20198;-78
2021/09/16 10:25:51;;;;;;;5.97;4.50;;;;;;;18.40;74.24;101295.47;5014771;28;20205;-78
2021/09/16 10:28:18;;;;;;;6.17;4.37;;;;;;;18.73;73.70;101285.78;5015165;28;20195;-78
2021/09/16 10:30:48;;;;;;;6.40;4.17;;;;;;;18.60;73.76;101291.06;5015866;28;20195;-77
2021/09/16 10:33:23;;;;;;;6.87;3.77;;;;;;;18.77;74.12;101294.41;5016189;28;20674;-78
2021/09/16 10:35:58;;;;;;;6.67;4.70;;;;;;;18.69;73.23;101297.03;5014747;28;20214;-78
2021/09/16 10:38:42;;;;;;;5.70;4.17;;;;;;;18.89;73.19;101289.13;5015219;28;20201;-77
2021/09/16 10:41:29;;;;;;;5.03;4.47;;;;;;;18.72;72.34;101293.56;5015882;28;20202;-77
2021/09/16 10:43:58;;;;;;;9.40;4.17;;;;;;;18.85;72.42;101290.91;5015407;28;20752;-77
2021/09/16 10:46:25;;;;;;;9.20;4.90;;;;;;;18.91;71.52;101290.84;5015738;28;20188;-77
2021/09/16 10:48:51;;;;;;;7.07;4.37;;;;;;;18.93;71.61;101286.50;5016385;28;20183;-78
2021/09/16 10:51:41;;;;;;;8.50;4.30;;;;;;;19.22;70.82;101284.56;5016311;28;20310;-77
2021/09/16 10:54:22;;;;;;;7.43;3.93;;;;;;;19.60;70.19;101281.59;5015399;28;20234;-78
2021/09/16 10:57:14;;;;;;;6.83;4.20;;;;;;;19.51;70.05;101271.28;5014447;28;20218;-77
2021/09/16 10:59:49;;;;;;;6.03;4.20;;;;;;;19.58;70.20;101267.78;5016041;28;20207;-78
2021/09/16 11:02:25;;;;;;;7.23;3.90;;;;;;;19.68;70.46;101267.66;5014688;28;20213;-78
2021/09/16 11:04:54;;;;;;;6.43;3.80;;;;;;;19.75;68.92;101273.63;5016538;28;20176;-77
2021/09/16 11:07:31;;;;;;;6.83;4.17;;;;;;;20.27;67.99;101274.78;5014322;28;20214;-78
2021/09/16 11:10:15;;;;;;;8.03;3.17;;;;;;;20.65;66.05;101272.50;5016350;28;20203;-78
2021/09/16 11:12:46;;;;;;;3.47;2.77;;;;;;;20.80;64.67;101278.34;5014475;28;20586;-78
2021/09/16 11:15:14;;;;;;;6.57;2.90;;;;;;;21.29;64.57;101270.63;5014661;28;20191;-78
2021/09/16 11:17:41;;;;;;;4.40;2.90;;;;;;;20.73;65.43;101268.03;5014757;28;20221;-77
2021/09/16 11:20:08;;;;;;;5.73;2.87;;;;;;;20.18;66.04;101270.53;5013705;28;20347;-78